Time;durP1;ratioP1;P1;durP2;ratioP2;P2;SDS_P1;SDS_P2;PMS_P1;PMS_P2;Temp;Humidity;BMP_temperature;BMP_pressure;BME280_temperature;BME280_humidity;BME280_pressure;Samples;Min_cycle;Max_cycle;Signal;HPM_P1;HPM_P2
2023/04/23 00:02:14;;;;;;;44.20;23.00;;;;;;;9.60;100.00;99227.16;106093;1257;73593;-80
2023/04/23 00:04:49;;;;;;;42.20;22.20;;;;;;;9.61;100.00;99230.34;105998;1258;61318;-80
2023/04/23 00:07:18;;;;;;;45.80;22.50;;;;;;;9.62;100.00;99232.33;106176;1254;61689;-81
2023/04/23 00:09:45;;;;;;;42.10;21.10;;;;;;;9.62;100.00;99237.47;106190;1252;73940;-80
2023/04/23 00:12:12;;;;;;;42.00;24.70;;;;;;;9.67;100.00;99231.56;106214;1254;69601;-78
2023/04/23 00:14:39;;;;;;;47.50;23.70;;;;;;;9.66;100.00;99230.48;105914;1260;71778;-79
2023/04/23 00:17:06;;;;;;;41.30;21.90;;;;;;;9.69;100.00;99232.10;105998;1253;61966;-79
2023/04/23 00:19:33;;;;;;;48.20;24.80;;;;;;;9.61;100.00;99229.91;106038;1258;61322;-80
2023/04/23 00:22:00;;;;;;;43.70;23.50;;;;;;;9.68;100.00;99233.98;106039;1254;74856;-81
2023/04/23 00:24:27;;;;;;;43.00;22.60;;;;;;;9.70;100.00;99234.42;105958;1254;69304;-81
2023/04/23 00:26:54;;;;;;;46.00;23.00;;;;;;;9.78;100.00;99240.98;105803;1254;73576;-84
2023/04/23 00:29:21;;;;;;;44.00;22.30;;;;;;;9.89;100.00;99237.56;106002;1254;62342;-81
2023/04/23 00:31:48;;;;;;;44.90;23.40;;;;;;;9.87;100.00;99241.69;106018;1257;61355;-80
2023/04/23 00:34:14;;;;;;;44.30;23.30;;;;;;;10.12;100.00;99238.32;106034;1257;74306;-81
2023/04/23 00:36:42;;;;;;;41.60;22.70;;;;;;;10.04;100.00;99238.33;106008;1254;69581;-79
2023/04/23 00:39:10;;;;;;;42.70;22.30;;;;;;;10.08;100.00;99241.30;105984;1257;73376;-81
2023/04/23 00:41:37;;;;;;;40.90;21.00;;;;;;;9.95;100.00;99240.30;105955;1255;62947;-80
2023/04/23 00:44:04;;;;;;;42.20;21.50;;;;;;;9.79;100.00;99240.39;106132;1254;61148;-81
2023/04/23 00:46:32;;;;;;;40.30;22.00;;;;;;;9.82;100.00;99239.30;106168;1254;75583;-81
2023/04/23 00:48:59;;;;;;;43.20;23.10;;;;;;;9.96;100.00;99237.31;106179;1256;68459;-81
2023/04/23 00:51:25;;;;;;;46.80;24.60;;;;;;;9.92;100.00;99237.12;106172;1254;74184;-82
2023/04/23 00:53:52;;;;;;;43.60;23.40;;;;;;;10.03;100.00;99237.14;106152;1254;61471;-81
2023/04/23 00:56:19;;;;;;;36.10;21.50;;;;;;;10.14;100.00;99234.41;106106;1254;61209;-80
2023/04/23 00:58:46;;;;;;;37.10;20.50;;;;;;;10.13;100.00;99233.98;106015;1254;74863;-81
2023/04/23 01:01:13;;;;;;;34.50;19.80;;;;;;;10.07;100.00;99231.91;106227;1253;69633;-80
2023/04/23 01:03:42;;;;;;;42.70;20.60;;;;;;;10.17;100.00;99233.70;108532;1260;71434;-80
2023/04/23 01:06:09;;;;;;;34.80;19.50;;;;;;;10.27;100.00;99236.88;107895;1256;63269;-81
2023/04/23 01:08:36;;;;;;;34.40;18.90;;;;;;;10.31;100.00;99237.73;105985;1258;61330;-83
2023/04/23 01:11:03;;;;;;;36.80;20.40;;;;;;;10.20;100.00;99237.95;106005;1261;74840;-80
2023/04/23 01:13:31;;;;;;;36.00;20.40;;;;;;;10.31;100.00;99237.13;105971;1260;69040;-80
2023/04/23 01:15:58;;;;;;;36.20;18.80;;;;;;;10.46;100.00;99242.75;106158;1253;73403;-81
2023/04/23 01:18:26;;;;;;;29.30;17.80;;;;;;;10.33;100.00;99241.27;105974;1257;61305;-81
2023/04/23 01:20:53;;;;;;;30.10;16.60;;;;;;;10.21;100.00;99242.90;105979;1253;61237;-80
2023/04/23 01:23:20;;;;;;;23.70;15.20;;;;;;;10.16;100.00;99243.62;106222;1253;75717;-80
2023/04/23 01:25:47;;;;;;;30.50;16.00;;;;;;;10.25;100.00;99243.69;106222;1254;69644;-80
2023/04/23 01:28:15;;;;;;;28.30;16.70;;;;;;;10.37;100.00;99244.62;106093;1257;72802;-82
2023/04/23 01:30:42;;;;;;;41.50;18.00;;;;;;;10.42;100.00;99242.23;106118;1253;62111;-80
2023/04/23 01:33:10;;;;;;;35.70;18.10;;;;;;;10.46;100.00;99242.42;106039;1253;61345;-80
2023/04/23 01:35:37;;;;;;;32.10;17.50;;;;;;;10.28;100.00;99242.40;106002;1253;74165;-81
2023/04/23 01:38:04;;;;;;;28.30;16.20;;;;;;;9.96;100.00;99243.41;106230;1253;69427;-80
2023/04/23 01:40:31;;;;;;;24.10;14.70;;;;;;;10.01;100.00;99245.38;106063;1253;73394;-80
2023/04/23 01:42:58;;;;;;;23.70;14.60;;;;;;;10.01;100.00;99241.64;106162;1253;61332;-81
2023/04/23 01:45:25;;;;;;;25.80;14.90;;;;;;;10.10;100.00;99241.44;105959;1254;61340;-81
2023/04/23 01:47:52;;;;;;;24.90;14.70;;;;;;;10.22;100.00;99241.02;106047;1254;73579;-81
2023/04/23 01:50:22;;;;;;;31.70;16.10;;;;;;;10.33;100.00;99238.21;106083;1253;69682;-81
2023/04/23 01:52:49;;;;;;;32.90;17.60;;;;;;;10.36;100.00;99241.58;106290;1257;72849;-84
2023/04/23 01:55:18;;;;;;;23.90;16.30;;;;;;;10.29;100.00;99243.45;106246;1253;62819;-81
2023/04/23 01:57:45;;;;;;;;;;;;;;;10.45;100.00;99244.03;106247;1254;61366;-80
2023/04/23 02:00:14;;;;;;;30.40;16.90;;;;;;;10.03;100.00;99245.02;106159;1257;75723;-80
2023/04/23 02:02:43;;;;;;;30.40;16.60;;;;;;;9.84;100.00;99243.64;106279;1254;69239;-80
2023/04/23 02:05:15;;;;;;;21.00;13.30;;;;;;;9.86;100.00;99244.47;106249;1257;72029;-80
2023/04/23 02:07:42;;;;;;;25.90;14.00;;;;;;;9.89;100.00;99240.53;106122;1253;61180;-80
2023/04/23 02:10:09;;;;;;;21.50;13.20;;;;;;;9.84;100.00;99245.14;106234;1253;61259;-81
2023/04/23 02:12:37;;;;;;;21.40;12.60;;;;;;;9.86;100.00;99246.08;106252;1257;75521;-80
2023/04/23 02:15:06;;;;;;;21.00;13.70;;;;;;;9.91;100.00;99246.70;106148;1253;69462;-80
2023/04/23 02:17:34;;;;;;;22.40;13.40;;;;;;;9.95;100.00;99245.48;106290;1253;73158;-79
2023/04/23 02:20:01;;;;;;;23.50;13.70;;;;;;;10.01;100.00;99244.16;105998;1253;62782;-81
2023/04/23 02:22:28;;;;;;;18.90;12.00;;;;;;;9.98;100.00;99250.94;106055;1253;61426;-80
2023/04/23 02:24:55;;;;;;;24.60;15.10;;;;;;;9.92;100.00;99252.45;106061;1257;75134;-81
2023/04/23 02:27:22;;;;;;;34.90;21.80;;;;;;;9.87;100.00;99251.39;106151;1253;69767;-80
2023/04/23 02:29:50;;;;;;;31.60;20.50;;;;;;;9.89;100.00;99253.45;105866;1254;73602;-84
2023/04/23 02:32:17;;;;;;;35.30;22.40;;;;;;;9.83;100.00;99250.24;106062;1253;61535;-84
2023/04/23 02:34:44;;;;;;;60.80;36.30;;;;;;;9.95;100.00;99248.98;106121;1257;61231;-79
2023/04/23 02:37:11;;;;;;;44.20;27.20;;;;;;;10.02;100.00;99249.80;106273;1256;75336;-81
2023/04/23 02:39:37;;;;;;;40.00;27.40;;;;;;;10.06;100.00;99250.78;106257;1253;69512;-80
2023/04/23 02:42:05;;;;;;;42.90;26.10;;;;;;;9.96;100.00;99253.39;106247;1253;72469;-80
2023/04/23 02:44:32;;;;;;;32.60;20.90;;;;;;;10.02;100.00;99253.23;106274;1254;62886;-80
2023/04/23 02:47:00;;;;;;;36.40;21.30;;;;;;;10.05;100.00;99257.16;106285;1257;61336;-80
2023/04/23 02:49:27;;;;;;;33.20;21.30;;;;;;;10.00;100.00;99258.30;106286;1255;74775;-80
2023/04/23 02:51:53;;;;;;;37.40;19.90;;;;;;;10.13;100.00;99260.64;106356;1253;68650;-80
2023/04/23 02:54:20;;;;;;;60.40;27.30;;;;;;;10.21;100.00;99265.16;106484;1253;72826;-80
2023/04/23 02:56:47;;;;;;;76.80;39.60;;;;;;;10.16;100.00;99272.89;106417;1255;61449;-80
2023/04/23 02:59:14;;;;;;;64.60;30.10;;;;;;;10.19;100.00;99269.27;106530;1259;61110;-81
2023/04/23 03:01:44;;;;;;;51.40;26.40;;;;;;;10.19;100.00;99266.42;106506;1253;73892;-81
2023/04/23 03:04:11;;;;;;;75.00;29.60;;;;;;;10.13;100.00;99268.48;106437;1254;69643;-82
2023/04/23 03:06:38;;;;;;;59.80;29.50;;;;;;;10.14;100.00;99264.58;105521;1267;73149;-81
2023/04/23 03:09:05;;;;;;;54.90;28.30;;;;;;;10.21;100.00;99267.69;106107;1257;62892;-80
2023/04/23 03:11:32;;;;;;;75.90;47.60;;;;;;;10.29;100.00;99269.02;106005;1253;62259;-80
2023/04/23 03:13:59;;;;;;;71.50;53.50;;;;;;;10.36;100.00;99271.66;106153;1253;75574;-80
2023/04/23 03:16:27;;;;;;;44.80;29.80;;;;;;;10.41;100.00;99265.10;106245;1255;69555;-80
2023/04/23 03:18:54;;;;;;;49.70;28.50;;;;;;;10.50;100.00;99267.89;106266;1253;72403;-82
2023/04/23 03:21:21;;;;;;;49.90;32.40;;;;;;;10.51;100.00;99264.62;106367;1253;62824;-81
2023/04/23 03:23:48;;;;;;;53.40;33.00;;;;;;;10.57;100.00;99270.92;106410;1253;61197;-80
2023/04/23 03:26:16;;;;;;;60.70;35.30;;;;;;;10.44;100.00;99274.61;106388;1255;74898;-80
2023/04/23 03:28:43;;;;;;;54.10;30.50;;;;;;;10.56;100.00;99274.94;106369;1253;68674;-80
2023/04/23 03:31:10;;;;;;;44.90;28.60;;;;;;;10.71;100.00;99277.05;106356;1254;72092;-80
2023/04/23 03:33:37;;;;;;;59.70;31.40;;;;;;;10.65;100.00;99280.36;106115;1254;61461;-81
2023/04/23 03:36:04;;;;;;;51.20;28.60;;;;;;;10.56;100.00;99282.98;106092;1258;61286;-81
2023/04/23 03:38:31;;;;;;;37.60;20.80;;;;;;;10.53;100.00;99281.64;106351;1256;75657;-80
2023/04/23 03:41:00;;;;;;;22.90;14.30;;;;;;;10.49;100.00;99285.06;106011;1257;67553;-82
2023/04/23 03:43:27;;;;;;;20.70;12.40;;;;;;;10.51;100.00;99288.98;105953;1255;73903;-79
2023/04/23 03:46:03;;;;;;;20.00;11.90;;;;;;;10.40;100.00;99288.06;105871;1256;61940;-81
2023/04/23 03:48:32;;;;;;;24.20;11.50;;;;;;;10.39;100.00;99292.13;105838;1257;61197;-84
2023/04/23 03:51:02;;;;;;;22.70;13.10;;;;;;;10.38;100.00;99290.66;105853;1253;75492;-80
2023/04/23 03:53:39;;;;;;;26.40;12.90;;;;;;;10.48;100.00;99290.63;105994;1257;69525;-81
2023/04/23 03:56:24;;;;;;;28.50;16.40;;;;;;;10.55;100.00;99291.16;105951;1254;73678;-81
2023/04/23 03:59:11;;;;;;;24.50;13.10;;;;;;;10.71;100.00;99293.11;105886;1254;62115;-80
2023/04/23 04:01:38;;;;;;;19.70;13.50;;;;;;;10.52;100.00;99296.17;106034;1253;61164;-81
2023/04/23 04:04:05;;;;;;;29.90;15.40;;;;;;;10.54;100.00;99301.39;107286;1252;74928;-80
2023/04/23 04:06:33;;;;;;;31.50;17.10;;;;;;;10.66;100.00;99305.81;108895;1252;69020;-80
2023/04/23 04:09:00;;;;;;;33.50;20.60;;;;;;;10.69;100.00;99309.27;106928;1253;72659;-80
2023/04/23 04:11:27;;;;;;;39.60;22.50;;;;;;;10.80;100.00;99307.86;106177;1253;61920;-81
2023/04/23 04:13:54;;;;;;;39.40;22.40;;;;;;;10.89;100.00;99312.64;106102;1252;61361;-79
2023/04/23 04:16:22;;;;;;;55.20;28.10;;;;;;;10.75;100.00;99313.63;106404;1256;72472;-80
2023/04/23 04:18:49;;;;;;;54.00;27.50;;;;;;;10.87;100.00;99317.19;106372;1253;69684;-82
2023/04/23 04:21:16;;;;;;;51.60;26.40;;;;;;;10.91;100.00;99320.27;106255;1254;72620;-81
2023/04/23 04:23:46;;;;;;;39.40;23.10;;;;;;;10.91;100.00;99324.77;105986;1252;62025;-81
2023/04/23 04:26:14;;;;;;;43.60;22.80;;;;;;;10.76;100.00;99323.79;106151;1257;61165;-81
2023/04/23 04:28:40;;;;;;;37.10;22.60;;;;;;;10.77;100.00;99325.20;106094;1254;73820;-80
2023/04/23 04:31:09;;;;;;;39.90;20.00;;;;;;;10.75;100.00;99328.30;105845;1253;66683;-83
2023/04/23 04:33:38;;;;;;;;;;;;;;;10.81;100.00;99326.02;106011;1253;72724;-82
2023/04/23 04:36:08;;;;;;;44.70;24.60;;;;;;;10.68;100.00;99331.20;105902;1257;61289;-81
2023/04/23 04:38:38;;;;;;;52.20;28.40;;;;;;;10.73;100.00;99332.20;105910;1252;61340;-82
2023/04/23 04:41:06;;;;;;;50.30;28.40;;;;;;;10.69;100.00;99335.68;106178;1256;75327;-79
2023/04/23 04:43:33;;;;;;;48.30;27.00;;;;;;;10.80;100.00;99335.63;106201;1257;67859;-81
2023/04/23 04:46:00;;;;;;;50.40;27.70;;;;;;;10.95;100.00;99331.90;105882;1257;73226;-81
2023/04/23 04:48:27;;;;;;;42.20;23.60;;;;;;;11.03;100.00;99334.19;105877;1254;61928;-80
2023/04/23 04:50:53;;;;;;;35.70;22.60;;;;;;;11.02;100.00;99333.86;106230;1254;62380;-80
2023/04/23 04:53:20;;;;;;;39.50;24.40;;;;;;;11.14;100.00;99338.47;105949;1257;74731;-81
2023/04/23 04:55:47;;;;;;;42.50;23.10;;;;;;;11.13;100.00;99339.86;106197;1254;68495;-80
2023/04/23 04:58:14;;;;;;;49.70;24.50;;;;;;;11.11;100.00;99344.27;106139;1254;73146;-80
2023/04/23 05:00:42;;;;;;;53.60;28.40;;;;;;;11.30;100.00;99344.02;106114;1254;62897;-80
2023/04/23 05:03:09;;;;;;;48.00;27.60;;;;;;;11.77;100.00;99344.09;106064;1253;61391;-83
2023/04/23 05:05:40;;;;;;;60.40;26.70;;;;;;;11.80;100.00;99344.57;106063;1253;74867;-82
2023/04/23 05:08:08;;;;;;;49.30;26.90;;;;;;;11.61;100.00;99341.95;106061;1253;69617;-80
2023/04/23 05:10:35;;;;;;;51.00;26.20;;;;;;;11.58;100.00;99342.98;106104;1252;72952;-81
2023/04/23 05:13:02;;;;;;;52.60;30.30;;;;;;;11.62;100.00;99342.05;105878;1253;62758;-82
2023/04/23 05:15:29;;;;;;;68.00;32.70;;;;;;;11.88;100.00;99347.89;106121;1254;62283;-82
2023/04/23 05:17:55;;;;;;;59.50;34.60;;;;;;;12.12;100.00;99351.58;106176;1252;72791;-81
2023/04/23 05:20:23;;;;;;;48.50;27.50;;;;;;;12.13;100.00;99355.71;105935;1259;67492;-80
2023/04/23 05:22:50;;;;;;;52.30;25.90;;;;;;;12.22;100.00;99355.23;106167;1254;73552;-79
2023/04/23 05:25:16;;;;;;;43.10;25.60;;;;;;;12.31;100.00;99356.58;106136;1256;61196;-82
2023/04/23 05:27:43;;;;;;;53.60;25.50;;;;;;;12.75;100.00;99358.47;105969;1258;61169;-82
2023/04/23 05:30:10;;;;;;;56.70;29.10;;;;;;;12.69;100.00;99358.68;106063;1256;75688;-82
2023/04/23 05:32:38;;;;;;;50.50;28.60;;;;;;;12.29;100.00;99356.09;106178;1256;69812;-81
2023/04/23 05:35:05;;;;;;;47.40;28.60;;;;;;;12.33;100.00;99361.91;106170;1253;73237;-81
2023/04/23 05:37:32;;;;;;;56.20;29.70;;;;;;;12.54;100.00;99360.55;106270;1253;63121;-81
2023/04/23 05:39:59;;;;;;;58.60;29.60;;;;;;;12.65;100.00;99366.51;106176;1254;61385;-81
2023/04/23 05:42:26;;;;;;;63.60;31.80;;;;;;;12.80;100.00;99367.19;106085;1253;75476;-81
2023/04/23 05:44:54;;;;;;;52.90;32.00;;;;;;;12.86;100.00;99368.77;106090;1253;69793;-81
2023/04/23 05:47:21;;;;;;;61.20;30.30;;;;;;;13.02;100.00;99367.23;106326;1254;73014;-80
2023/04/23 05:49:48;;;;;;;60.20;31.00;;;;;;;13.14;100.00;99368.45;106343;1253;61272;-83
2023/04/23 05:52:15;;;;;;;59.80;31.30;;;;;;;13.25;100.00;99373.04;106364;1257;61222;-82
2023/04/23 05:54:42;;;;;;;63.50;29.20;;;;;;;13.43;100.00;99378.90;106796;1252;73657;-81
2023/04/23 05:57:10;;;;;;;41.70;25.70;;;;;;;13.39;100.00;99379.19;106512;1253;69659;-82
2023/04/23 05:59:38;;;;;;;49.30;24.40;;;;;;;13.62;100.00;99381.50;106197;1253;72619;-81
2023/04/23 06:02:06;;;;;;;39.50;22.80;;;;;;;13.88;100.00;99382.32;106070;1253;63393;-82
2023/04/23 06:04:34;;;;;;;36.30;21.40;;;;;;;14.55;100.00;99381.18;106005;1254;61269;-81
2023/04/23 06:07:02;;;;;;;34.30;22.20;;;;;;;14.99;100.00;99384.77;105965;1260;75830;-83
2023/04/23 06:09:29;;;;;;;57.10;22.40;;;;;;;15.45;96.30;99390.14;106069;1256;68514;-83
2023/04/23 06:11:58;;;;;;;46.70;21.50;;;;;;;15.82;92.64;99392.44;106088;1253;73773;-81
2023/04/23 06:14:24;;;;;;;39.00;19.00;;;;;;;16.09;85.77;99394.27;106063;1253;61245;-82
2023/04/23 06:16:51;;;;;;;32.70;18.60;;;;;;;16.40;77.79;99400.55;106261;1253;61322;-81
2023/04/23 06:19:18;;;;;;;31.80;17.20;;;;;;;16.63;74.35;99402.13;106212;1253;75737;-82
2023/04/23 06:21:45;;;;;;;33.00;16.00;;;;;;;17.01;71.50;99407.32;106146;1252;68728;-83
2023/04/23 06:24:12;;;;;;;22.00;14.10;;;;;;;17.56;65.89;99411.17;106268;1254;73552;-81
2023/04/23 06:26:39;;;;;;;24.40;15.40;;;;;;;18.07;58.41;99414.56;106229;1256;61215;-80
2023/04/23 06:29:09;;;;;;;25.20;14.30;;;;;;;18.31;54.00;99423.56;106158;1253;62262;-81
2023/04/23 06:31:58;;;;;;;22.40;13.10;;;;;;;18.47;48.02;99424.35;106235;1254;75749;-81
2023/04/23 06:34:25;;;;;;;13.80;9.80;;;;;;;18.91;47.66;99427.25;105912;1260;68363;-82
2023/04/23 06:36:53;;;;;;;19.00;9.90;;;;;;;19.30;45.41;99430.84;105999;1257;72583;-81
2023/04/23 06:39:21;;;;;;;;;;;;;;;19.54;43.33;99433.92;106238;1254;62285;-80
2023/04/23 06:41:48;;;;;;;13.60;8.40;;;;;;;19.66;42.10;99436.79;106202;1253;61218;-81
2023/04/23 06:44:41;;;;;;;17.00;8.10;;;;;;;19.77;42.20;99438.17;105988;1257;73741;-81
2023/04/23 06:47:09;;;;;;;10.40;5.90;;;;;;;19.82;40.23;99445.81;106222;1253;69524;-82
2023/04/23 06:49:36;;;;;;;19.40;8.30;;;;;;;19.50;39.22;99444.21;105958;1254;73410;-82
2023/04/23 06:52:03;;;;;;;12.20;8.30;;;;;;;19.35;40.57;99447.63;106188;1252;62272;-82
2023/04/23 06:54:32;;;;;;;30.20;18.30;;;;;;;19.47;40.63;99445.88;106170;1253;61282;-82
2023/04/23 06:57:00;;;;;;;32.30;20.90;;;;;;;19.28;39.98;99445.75;106115;1256;75746;-81
2023/04/23 06:59:27;;;;;;;30.20;18.30;;;;;;;19.48;40.22;99443.60;106088;1253;68497;-81
2023/04/23 07:01:54;;;;;;;25.00;12.90;;;;;;;19.77;41.39;99447.55;105953;1253;73335;-81
2023/04/23 07:04:21;;;;;;;15.00;8.30;;;;;;;19.70;40.66;99444.11;105916;1253;61285;-82
2023/04/23 07:06:47;;;;;;;9.90;7.30;;;;;;;19.21;40.35;99444.21;105893;1256;61139;-82
2023/04/23 07:09:14;;;;;;;11.60;7.00;;;;;;;19.10;39.88;99442.47;108055;1253;74949;-81
2023/04/23 07:11:41;;;;;;;8.80;4.30;;;;;;;19.38;37.88;99447.00;108930;1253;68781;-83
2023/04/23 07:14:09;;;;;;;8.80;3.50;;;;;;;19.74;35.63;99449.80;106246;1254;72205;-84
2023/04/23 07:16:36;;;;;;;3.80;2.90;;;;;;;19.85;34.28;99453.95;105979;1253;61360;-83
2023/04/23 07:19:03;;;;;;;7.80;3.20;;;;;;;19.92;33.51;99453.80;106423;1253;61317;-82
2023/04/23 07:21:31;;;;;;;11.60;3.70;;;;;;;20.16;32.58;99454.38;106148;1257;73001;-82
2023/04/23 07:23:59;;;;;;;;;;;;;;;20.78;32.40;99456.08;106101;1253;69666;-83
2023/04/23 07:26:26;;;;;;;9.70;5.60;;;;;;;21.21;32.69;99455.87;106241;1253;74150;-83
2023/04/23 07:28:53;;;;;;;4.90;3.90;;;;;;;21.44;32.26;99453.16;106159;1253;61305;-81
2023/04/23 07:31:25;;;;;;;3.80;2.70;;;;;;;21.78;32.04;99453.66;106158;1253;61341;-82
2023/04/23 07:33:55;;;;;;;7.60;2.70;;;;;;;22.19;31.45;99454.90;106051;1253;73946;-82
2023/04/23 07:36:22;;;;;;;4.30;2.60;;;;;;;21.83;31.16;99456.59;106097;1256;68648;-80
2023/04/23 07:38:49;;;;;;;5.80;2.60;;;;;;;21.68;31.37;99453.59;105957;1258;72857;-82
2023/04/23 07:41:17;;;;;;;4.10;2.70;;;;;;;21.63;31.04;99453.45;106184;1253;61282;-81
2023/04/23 07:43:44;;;;;;;8.50;2.30;;;;;;;21.89;31.11;99456.16;105825;1262;61401;-82
2023/04/23 07:46:11;;;;;;;6.30;2.00;;;;;;;22.50;29.99;99458.09;105951;1254;75596;-81
2023/04/23 07:48:38;;;;;;;4.40;2.20;;;;;;;22.59;30.68;99457.55;105954;1254;68499;-82
2023/04/23 07:51:05;;;;;;;3.50;2.50;;;;;;;22.87;29.63;99462.50;106168;1256;70283;-81
2023/04/23 07:53:32;;;;;;;2.10;1.80;;;;;;;22.61;29.78;99456.67;106010;1253;61235;-83
2023/04/23 07:55:59;;;;;;;3.30;1.60;;;;;;;22.41;29.27;99458.33;106310;1256;61113;-82
2023/04/23 07:58:26;;;;;;;4.80;1.80;;;;;;;22.58;28.66;99462.92;106215;1252;75021;-81
2023/04/23 08:00:53;;;;;;;2.70;1.90;;;;;;;22.82;28.77;99464.45;106143;1253;68843;-82
2023/04/23 08:03:21;;;;;;;1.80;1.50;;;;;;;23.07;27.68;99463.86;105836;1258;73739;-82
2023/04/23 08:05:48;;;;;;;2.00;1.40;;;;;;;23.20;26.62;99464.67;105936;1253;62198;-82
2023/04/23 08:08:15;;;;;;;4.40;2.20;;;;;;;22.87;26.06;99462.91;105929;1257;61421;-80
2023/04/23 08:10:42;;;;;;;3.60;1.70;;;;;;;23.13;26.31;99460.69;105945;1253;73590;-81
2023/04/23 08:13:09;;;;;;;1.90;1.70;;;;;;;23.20;25.36;99460.94;105951;1253;69541;-81
2023/04/23 08:15:35;;;;;;;4.20;2.10;;;;;;;23.14;25.51;99457.75;105963;1257;71484;-82
2023/04/23 08:18:03;;;;;;;3.60;1.60;;;;;;;23.27;25.42;99458.66;105888;1256;62220;-79
2023/04/23 08:20:31;;;;;;;3.50;2.30;;;;;;;23.27;25.69;99457.23;105889;1253;61334;-82
2023/04/23 08:22:58;;;;;;;4.90;1.50;;;;;;;23.25;25.62;99453.34;105939;1253;75245;-81
2023/04/23 08:25:24;;;;;;;4.70;1.40;;;;;;;22.87;26.08;99453.54;105956;1257;69255;-81
2023/04/23 08:27:51;;;;;;;3.60;2.00;;;;;;;22.63;26.58;99453.41;105960;1253;73583;-83
2023/04/23 08:30:18;;;;;;;3.10;1.40;;;;;;;22.75;26.15;99453.41;106078;1257;61255;-81
2023/04/23 08:32:48;;;;;;;4.00;1.80;;;;;;;22.91;25.47;99455.93;105993;1253;61357;-82
2023/04/23 08:35:14;;;;;;;4.20;1.50;;;;;;;23.31;25.61;99455.17;105874;1253;75122;-82
2023/04/23 08:37:41;;;;;;;1.90;1.30;;;;;;;23.18;26.09;99448.95;106050;1257;68752;-81
2023/04/23 08:40:08;;;;;;;1.60;1.10;;;;;;;22.33;25.71;99448.27;105743;1260;73635;-81
2023/04/23 08:42:43;;;;;;;3.40;1.50;;;;;;;22.69;26.15;99445.08;105889;1258;61230;-79
2023/04/23 08:45:10;;;;;;;2.50;1.50;;;;;;;22.87;27.12;99444.30;106016;1253;61397;-80
2023/04/23 08:47:41;;;;;;;4.40;1.80;;;;;;;21.95;27.47;99439.56;105844;1256;72659;-85
2023/04/23 08:50:13;;;;;;;11.40;3.00;;;;;;;21.28;28.56;99433.55;105955;1253;69363;-80
2023/04/23 08:52:43;;;;;;;3.10;2.30;;;;;;;20.67;29.37;99430.68;105928;1253;71323;-80
2023/04/23 08:55:11;;;;;;;5.70;2.30;;;;;;;20.34;29.40;99431.55;105854;1257;61221;-82
2023/04/23 08:57:39;;;;;;;3.70;2.30;;;;;;;20.03;29.89;99429.94;105873;1253;61824;-82
2023/04/23 09:00:09;;;;;;;6.00;2.20;;;;;;;19.85;29.95;99429.23;105952;1257;74738;-80
2023/04/23 09:02:41;;;;;;;7.00;3.30;;;;;;;19.79;30.14;99424.40;105951;1254;115600;-80
2023/04/23 09:05:08;;;;;;;7.70;2.90;;;;;;;19.83;30.09;99428.52;105869;1260;72313;-81
2023/04/23 09:07:35;;;;;;;5.00;2.90;;;;;;;19.87;29.68;99427.96;105854;1253;61283;-80
2023/04/23 09:10:03;;;;;;;8.40;3.80;;;;;;;19.45;30.42;99423.98;106073;1258;61228;-82
2023/04/23 09:12:30;;;;;;;8.20;2.90;;;;;;;19.08;30.82;99420.83;105998;1257;75721;-80
2023/04/23 09:14:57;;;;;;;3.60;2.30;;;;;;;18.81;31.34;99421.67;106014;1254;69630;-80
2023/04/23 09:17:26;;;;;;;3.60;2.40;;;;;;;19.08;30.63;99417.95;105976;1253;73429;-82
2023/04/23 09:19:53;;;;;;;4.90;3.10;;;;;;;19.42;30.25;99416.13;106129;1253;61227;-81
2023/04/23 09:22:39;;;;;;;13.60;5.40;;;;;;;19.66;30.51;99415.52;106095;1256;61272;-83
2023/04/23 09:25:10;;;;;;;2.40;2.20;;;;;;;19.48;30.51;99411.39;106065;1253;72629;-81
2023/04/23 09:27:37;;;;;;;6.30;2.60;;;;;;;19.29;30.77;99408.88;106062;1256;67792;-83
2023/04/23 09:30:07;;;;;;;6.60;2.60;;;;;;;19.52;30.69;99409.58;105865;1254;73300;-84
2023/04/23 09:32:35;;;;;;;4.00;2.60;;;;;;;19.61;31.17;99409.77;106192;1253;61448;-83
2023/04/23 09:35:06;;;;;;;4.80;2.30;;;;;;;20.02;31.09;99404.35;106111;1253;61242;-83
2023/04/23 09:37:34;;;;;;;3.60;1.90;;;;;;;20.40;29.89;99404.57;106174;1253;74814;-82
2023/04/23 09:40:04;;;;;;;3.40;2.10;;;;;;;21.02;29.25;99405.34;105977;1253;69598;-81
2023/04/23 09:42:32;;;;;;;3.60;2.20;;;;;;;21.87;27.26;99407.70;105902;1253;73722;-82
2023/04/23 09:45:02;;;;;;;4.70;2.30;;;;;;;22.58;27.04;99412.33;106033;1253;61477;-81
2023/04/23 09:47:33;;;;;;;6.00;2.60;;;;;;;22.91;26.87;99410.83;106317;1254;61240;-82
2023/04/23 09:50:00;;;;;;;16.80;4.10;;;;;;;22.77;27.58;99409.81;106159;1255;74844;-82
2023/04/23 09:52:29;;;;;;;3.20;1.70;;;;;;;22.59;26.86;99407.59;106188;1253;70224;-82
2023/04/23 09:54:58;;;;;;;2.00;1.60;;;;;;;22.35;25.61;99409.16;106232;1256;72616;-81
2023/04/23 09:57:25;;;;;;;5.70;2.20;;;;;;;22.71;26.03;99410.63;106106;1253;61339;-83
2023/04/23 09:59:55;;;;;;;2.50;1.70;;;;;;;23.25;26.09;99413.52;106136;1255;61221;-81
2023/04/23 10:02:47;;;;;;;2.20;1.70;;;;;;;23.06;25.27;99411.02;106374;1255;75325;-80
2023/04/23 10:05:19;;;;;;;5.10;1.80;;;;;;;22.94;26.20;99409.89;106069;1259;68851;-81
2023/04/23 10:07:50;;;;;;;2.90;2.00;;;;;;;23.04;26.90;99408.60;106428;1256;72674;-83
2023/04/23 10:10:18;;;;;;;2.90;1.50;;;;;;;23.62;25.86;99411.56;106269;1253;62127;-82
2023/04/23 10:12:45;;;;;;;2.00;1.70;;;;;;;23.52;25.73;99415.17;106482;1253;62592;-79
2023/04/23 10:15:24;;;;;;;2.80;1.80;;;;;;;23.13;25.24;99414.09;106229;1253;74656;-80
2023/04/23 10:17:51;;;;;;;6.20;2.10;;;;;;;22.75;26.43;99404.58;108591;1252;69549;-79
2023/04/23 10:20:20;;;;;;;2.10;1.80;;;;;;;22.52;27.04;99401.58;107586;1253;71743;-79
2023/04/23 10:22:47;;;;;;;4.70;2.50;;;;;;;22.63;26.97;99405.23;106310;1258;61347;-81
2023/04/23 10:25:13;;;;;;;3.10;2.00;;;;;;;22.77;26.58;99406.51;106317;1256;61340;-80
2023/04/23 10:27:45;;;;;;;2.20;1.90;;;;;;;22.85;26.10;99405.45;106060;1257;73847;-78
2023/04/23 10:30:21;;;;;;;4.00;2.20;;;;;;;23.05;25.55;99408.98;106756;1255;68438;-79
2023/04/23 10:32:49;;;;;;;3.10;1.90;;;;;;;23.36;26.18;99410.27;106608;1255;73528;-83
2023/04/23 10:35:16;;;;;;;2.20;1.80;;;;;;;23.14;25.28;99404.57;106156;1254;61456;-80
2023/04/23 10:37:43;;;;;;;3.90;1.60;;;;;;;22.95;25.40;99399.31;106518;1253;61289;-81
2023/04/23 10:40:12;;;;;;;2.70;2.10;;;;;;;22.91;25.65;99398.14;105913;1253;74646;-80
2023/04/23 10:42:39;;;;;;;4.00;2.90;;;;;;;22.93;26.12;99397.53;106208;1253;69665;-81
2023/04/23 10:45:13;;;;;;;3.20;2.30;;;;;;;22.62;25.65;99390.67;106147;1253;71972;-80
2023/04/23 10:47:53;;;;;;;5.00;2.20;;;;;;;22.73;26.33;99393.92;105913;1253;61518;-78
2023/04/23 10:50:25;;;;;;;6.90;2.00;;;;;;;22.90;26.05;99389.38;106081;1254;61248;-79
2023/04/23 10:52:53;;;;;;;5.30;2.20;;;;;;;22.55;26.45;99381.83;106836;1256;75736;-81
2023/04/23 10:55:22;;;;;;;4.80;2.00;;;;;;;22.79;26.16;99386.48;106283;1254;69068;-82
2023/04/23 10:58:00;;;;;;;11.00;2.40;;;;;;;22.99;25.75;99388.74;106482;1253;72563;-82
2023/04/23 11:00:44;;;;;;;2.10;1.90;;;;;;;22.81;25.66;99385.70;106248;1254;61343;-80
2023/04/23 11:03:40;;;;;;;3.10;2.30;;;;;;;22.30;25.56;99386.02;106078;1254;61340;-79
2023/04/23 11:06:36;;;;;;;3.10;2.00;;;;;;;22.85;25.60;99387.55;105940;1254;74561;-81
2023/04/23 11:09:34;;;;;;;4.20;2.50;;;;;;;23.02;25.23;99389.33;105979;1256;69804;-80
2023/04/23 11:12:01;;;;;;;7.00;2.70;;;;;;;22.63;25.93;99381.17;105668;1259;72854;-79
2023/04/23 11:14:35;;;;;;;5.40;3.00;;;;;;;22.71;26.56;99382.06;105805;1259;61285;-78
2023/04/23 11:17:03;;;;;;;2.60;2.10;;;;;;;22.75;26.44;99380.96;106013;1266;61489;-81
2023/04/23 11:19:35;;;;;;;4.30;2.60;;;;;;;22.20;25.78;99381.77;105759;1260;75755;-78